Time;durP1;ratioP1;P1;durP2;ratioP2;P2;SDS_P1;SDS_P2;PMS_P1;PMS_P2;Temp;Humidity;BMP_temperature;BMP_pressure;BME280_temperature;BME280_humidity;BME280_pressure;Samples;Min_cycle;Max_cycle;Signal;HPM_P1;HPM_P2
2021/10/28 00:12:13;;;;;;;13.93;6.28;;;9.50;99.90;;;;;;4926476;29;20069;-81
2021/10/28 00:13:11;;;;;;;8.93;4.70;;;9.50;99.90;;;;;;4918496;29;20086;-81
2021/10/28 00:15:39;;;;;;;11.50;6.28;;;9.50;99.90;;;;;;4932194;29;20036;-82
2021/10/28 00:18:11;;;;;;;8.27;5.00;;;9.60;99.90;;;;;;4930794;29;20039;-82
2021/10/28 00:20:37;;;;;;;10.82;5.13;;;9.50;99.90;;;;;;4911458;28;20419;-81
2021/10/28 00:23:07;;;;;;;8.10;4.57;;;9.60;99.90;;;;;;4919219;29;20035;-82
2021/10/28 00:25:33;;;;;;;12.25;7.45;;;9.60;99.90;;;;;;4919129;29;20086;-82
2021/10/28 00:27:59;;;;;;;10.65;6.18;;;9.50;99.90;;;;;;4912730;29;20374;-82
2021/10/28 00:30:25;;;;;;;7.82;5.22;;;9.50;99.90;;;;;;4919606;29;20054;-83
2021/10/28 00:32:50;;;;;;;8.13;4.85;;;9.50;99.90;;;;;;4914849;29;20492;-82
2021/10/28 00:35:16;;;;;;;8.35;5.43;;;9.60;99.90;;;;;;4919501;28;20448;-82
2021/10/28 00:37:41;;;;;;;9.73;5.43;;;9.60;99.90;;;;;;4927012;29;20043;-81
2021/10/28 00:40:10;;;;;;;9.43;5.38;;;9.60;99.90;;;;;;4914382;29;20059;-82
2021/10/28 00:42:37;;;;;;;11.02;5.15;;;9.60;99.90;;;;;;4928712;28;20032;-81
2021/10/28 00:45:03;;;;;;;9.20;4.93;;;9.60;99.90;;;;;;4908303;29;20044;-82
2021/10/28 00:47:33;;;;;;;12.88;5.55;;;9.60;99.90;;;;;;4915692;29;20042;-82
2021/10/28 00:49:59;;;;;;;7.88;4.72;;;9.60;99.90;;;;;;4913666;29;20050;-82
2021/10/28 00:52:24;;;;;;;10.23;5.45;;;9.60;99.90;;;;;;4902846;29;20028;-82
2021/10/28 00:54:50;;;;;;;13.10;6.55;;;9.60;99.90;;;;;;4932745;29;20519;-82
2021/10/28 00:57:15;;;;;;;11.68;6.03;;;9.60;99.90;;;;;;4927313;29;20130;-82
2021/10/28 00:59:42;;;;;;;10.93;5.97;;;9.60;99.90;;;;;;4902622;29;20039;-82
2021/10/28 01:02:08;;;;;;;9.40;5.82;;;9.60;99.90;;;;;;4905217;29;20039;-82
2021/10/28 01:04:33;;;;;;;7.55;5.10;;;9.60;99.90;;;;;;4919649;28;20046;-81
2021/10/28 01:06:59;;;;;;;11.13;6.00;;;9.60;99.90;;;;;;4912788;29;20050;-82
2021/10/28 01:09:25;;;;;;;10.05;5.32;;;9.50;99.90;;;;;;4910673;29;20129;-82
2021/10/28 01:11:51;;;;;;;10.82;5.57;;;9.60;99.90;;;;;;4914397;29;20061;-81
2021/10/28 01:14:17;;;;;;;7.35;4.95;;;9.50;99.90;;;;;;4924882;29;20551;-81
2021/10/28 01:16:42;;;;;;;11.52;6.47;;;9.50;99.90;;;;;;4913841;29;20040;-81
2021/10/28 01:19:08;;;;;;;9.43;6.28;;;9.50;99.90;;;;;;4910060;29;20126;-81
2021/10/28 01:21:34;;;;;;;8.25;5.13;;;9.50;99.90;;;;;;4927408;29;20042;-81
2021/10/28 01:23:59;;;;;;;10.25;6.22;;;9.50;99.90;;;;;;4928938;29;20067;-82
2021/10/28 01:26:25;;;;;;;11.40;5.63;;;9.50;99.90;;;;;;4942185;28;20032;-81
2021/10/28 01:29:01;;;;;;;7.47;5.10;;;9.50;99.90;;;;;;4898166;29;20047;-82
2021/10/28 01:31:29;;;;;;;12.25;5.80;;;9.40;99.90;;;;;;4913302;29;20035;-81
2021/10/28 01:33:55;;;;;;;8.63;5.13;;;9.50;99.90;;;;;;4911606;29;20043;-81
2021/10/28 01:36:22;;;;;;;9.30;5.03;;;9.40;99.90;;;;;;4913550;29;20038;-81
2021/10/28 01:38:48;;;;;;;7.75;5.15;;;9.50;99.90;;;;;;4924889;29;20559;-82
2021/10/28 01:41:13;;;;;;;7.68;5.30;;;9.50;99.90;;;;;;4900680;29;20028;-81
2021/10/28 01:43:39;;;;;;;12.90;7.18;;;9.50;99.90;;;;;;4925940;29;20541;-82
2021/10/28 01:46:06;;;;;;;8.02;5.50;;;9.40;99.90;;;;;;4899298;28;20043;-82
2021/10/28 01:48:32;;;;;;;7.88;4.82;;;9.40;99.90;;;;;;4912282;29;20023;-83
2021/10/28 01:50:57;;;;;;;11.70;6.55;;;9.50;99.90;;;;;;4940624;28;20024;-82
2021/10/28 01:53:23;;;;;;;15.35;6.60;;;9.40;99.90;;;;;;4931787;29;20102;-82
2021/10/28 01:55:48;;;;;;;9.85;5.60;;;9.40;99.90;;;;;;4927321;29;20075;-82
2021/10/28 01:58:16;;;;;;;10.27;6.30;;;9.40;99.90;;;;;;4909298;29;20037;-82
2021/10/28 02:00:43;;;;;;;10.18;5.93;;;9.30;99.90;;;;;;4913617;29;20091;-82
2021/10/28 02:03:09;;;;;;;11.85;6.55;;;9.30;99.90;;;;;;4895733;29;20175;-82
2021/10/28 02:05:35;;;;;;;11.30;5.05;;;9.40;99.90;;;;;;4925356;29;20392;-81
2021/10/28 02:08:01;;;;;;;10.77;6.13;;;9.30;99.90;;;;;;4913797;29;20495;-82
2021/10/28 02:10:26;;;;;;;9.88;5.70;;;9.30;99.90;;;;;;4924081;28;20035;-82
2021/10/28 02:12:56;;;;;;;12.23;6.90;;;9.30;99.90;;;;;;4917029;28;20472;-82
2021/10/28 02:15:21;;;;;;;10.60;6.40;;;9.20;99.90;;;;;;4899470;29;20142;-82
2021/10/28 02:17:47;;;;;;;9.32;6.32;;;9.20;99.90;;;;;;4894868;28;20480;-82
2021/10/28 02:20:14;;;;;;;9.35;6.50;;;9.20;99.90;;;;;;4913545;29;20535;-82
2021/10/28 02:22:40;;;;;;;10.23;5.85;;;9.20;99.90;;;;;;4931699;29;20035;-81
2021/10/28 02:25:06;;;;;;;10.98;6.38;;;9.30;99.90;;;;;;4915147;29;20035;-81
2021/10/28 02:27:31;;;;;;;9.75;6.38;;;9.20;99.90;;;;;;4915383;29;20031;-81
2021/10/28 02:29:57;;;;;;;12.85;6.75;;;9.20;99.90;;;;;;4898361;28;20514;-81
2021/10/28 02:32:23;;;;;;;10.68;7.60;;;9.00;99.90;;;;;;4918877;28;20042;-81
2021/10/28 02:34:49;;;;;;;10.07;7.05;;;9.00;99.90;;;;;;4914593;29;20051;-81
2021/10/28 02:37:15;;;;;;;13.70;7.50;;;9.00;99.90;;;;;;4898780;28;20045;-82
2021/10/28 02:39:40;;;;;;;10.90;5.75;;;8.90;99.90;;;;;;4914753;28;20039;-81
2021/10/28 02:42:06;;;;;;;12.55;7.57;;;9.00;99.90;;;;;;4916627;29;20167;-81
2021/10/28 02:44:31;;;;;;;11.77;6.10;;;8.90;99.90;;;;;;4932539;29;20024;-81
2021/10/28 02:46:57;;;;;;;13.00;7.45;;;8.80;99.90;;;;;;4927804;29;20608;-81
2021/10/28 02:49:23;;;;;;;9.20;5.63;;;8.80;99.90;;;;;;4944013;29;20054;-81
2021/10/28 02:51:49;;;;;;;13.07;7.28;;;8.90;99.90;;;;;;4893935;29;20336;-81
2021/10/28 02:54:18;;;;;;;13.32;7.90;;;8.90;99.90;;;;;;4920802;29;20039;-81
2021/10/28 02:56:44;;;;;;;14.23;8.48;;;8.80;99.90;;;;;;4918343;28;20039;-81
2021/10/28 02:59:09;;;;;;;14.65;8.63;;;8.60;99.90;;;;;;4898259;29;20039;-81
2021/10/28 03:01:46;;;;;;;15.25;9.05;;;8.60;99.90;;;;;;4915062;29;20027;-81
2021/10/28 03:04:16;;;;;;;17.00;10.02;;;8.70;99.90;;;;;;4895941;29;20039;-81
2021/10/28 03:06:41;;;;;;;16.75;10.80;;;8.40;99.90;;;;;;4928766;28;20078;-81
2021/10/28 03:09:08;;;;;;;14.57;8.52;;;8.40;99.90;;;;;;4896502;28;20075;-81
2021/10/28 03:11:34;;;;;;;14.73;9.23;;;8.50;99.90;;;;;;4918060;29;20051;-81
2021/10/28 03:14:00;;;;;;;15.63;9.68;;;8.40;99.90;;;;;;4927722;29;20076;-81
2021/10/28 03:16:43;;;;;;;14.13;9.20;;;8.40;99.90;;;;;;4945930;28;20066;-81
2021/10/28 03:27:03;;;;;;;13.63;8.65;;;8.40;99.90;;;;;;4923972;29;20046;-81
2021/10/28 03:29:28;;;;;;;15.07;8.15;;;8.40;99.90;;;;;;4945789;28;20499;-81
2021/10/28 03:31:54;;;;;;;16.13;9.55;;;8.30;99.90;;;;;;4898212;29;20068;-81
2021/10/28 03:34:20;;;;;;;18.85;9.48;;;8.30;99.90;;;;;;4929358;28;20040;-81
2021/10/28 03:36:53;;;;;;;12.93;8.63;;;8.30;99.90;;;;;;4928363;29;20042;-81
2021/10/28 03:45:02;;;;;;;9.18;6.15;;;8.50;99.90;;;;;;4928410;29;20035;-82
2021/10/28 04:06:10;;;;;;;15.35;9.13;;;8.30;99.90;;;;;;4916116;29;20063;-81
2021/10/28 04:19:23;;;;;;;18.98;11.88;;;8.00;99.90;;;;;;4941237;28;20042;-81
2021/10/28 04:30:00;;;;;;;16.65;10.25;;;7.90;99.90;;;;;;4930907;29;20114;-82
2021/10/28 04:32:27;;;;;;;12.52;8.05;;;7.90;99.90;;;;;;4918372;29;20035;-81
2021/10/28 04:34:53;;;;;;;12.68;8.52;;;7.80;99.90;;;;;;4902801;29;20035;-81
2021/10/28 04:37:18;;;;;;;16.40;10.48;;;7.90;99.90;;;;;;4943452;29;20094;-81
2021/10/28 04:39:44;;;;;;;17.58;10.60;;;8.00;99.90;;;;;;4916471;28;20032;-81
2021/10/28 04:42:10;;;;;;;19.83;11.10;;;7.90;99.90;;;;;;4902095;29;20507;-81
2021/10/28 04:44:35;;;;;;;18.02;10.40;;;7.90;99.90;;;;;;4916467;28;20098;-81
2021/10/28 04:47:01;;;;;;;20.35;11.55;;;7.90;99.90;;;;;;4901501;29;20407;-81
2021/10/28 04:49:26;;;;;;;22.17;12.23;;;7.90;99.90;;;;;;4913205;28;20082;-81
2021/10/28 04:51:52;;;;;;;22.42;12.27;;;7.80;99.90;;;;;;4913851;29;20039;-81
2021/10/28 04:54:19;;;;;;;19.98;11.25;;;7.80;99.90;;;;;;4931766;29;20039;-81
2021/10/28 04:56:44;;;;;;;22.95;13.50;;;7.80;99.90;;;;;;4930576;29;20038;-81
2021/10/28 04:59:10;;;;;;;22.27;12.73;;;7.80;99.90;;;;;;4900462;29;20483;-81
2021/10/28 05:01:36;;;;;;;21.27;11.77;;;7.80;99.90;;;;;;4928321;28;20039;-81
2021/10/28 05:04:01;;;;;;;23.45;12.15;;;7.90;99.90;;;;;;4901096;29;20051;-81
2021/10/28 05:06:27;;;;;;;25.25;12.27;;;7.90;99.90;;;;;;4925749;29;20051;-81
2021/10/28 05:08:52;;;;;;;15.82;8.32;;;7.90;99.90;;;;;;4926506;29;20042;-82
2021/10/28 05:11:18;;;;;;;22.85;12.05;;;7.90;99.90;;;;;;4879291;29;20040;-81
2021/10/28 05:13:44;;;;;;;18.35;10.27;;;7.90;99.90;;;;;;4916663;29;20024;-81
2021/10/28 05:16:10;;;;;;;16.25;9.95;;;7.90;99.90;;;;;;4889732;29;20034;-83
2021/10/28 05:18:39;;;;;;;14.48;8.05;;;7.90;99.90;;;;;;4894755;29;20048;-81
2021/10/28 05:21:06;;;;;;;20.70;11.27;;;7.90;99.90;;;;;;4913345;29;20039;-80
2021/10/28 05:23:32;;;;;;;18.83;9.38;;;7.90;99.90;;;;;;4914076;29;20396;-82
2021/10/28 05:25:57;;;;;;;13.57;8.38;;;7.80;99.90;;;;;;4895719;29;20031;-81
2021/10/28 05:28:23;;;;;;;20.50;11.07;;;7.80;99.90;;;;;;4912636;29;20046;-81
2021/10/28 05:30:48;;;;;;;20.10;10.48;;;7.70;99.90;;;;;;4881526;29;20036;-81
2021/10/28 05:33:14;;;;;;;21.35;11.77;;;7.70;99.90;;;;;;4881409;29;20040;-81
2021/10/28 05:35:40;;;;;;;22.15;11.88;;;7.60;99.90;;;;;;4897016;29;20122;-81
2021/10/28 05:38:05;;;;;;;23.58;12.65;;;7.60;99.90;;;;;;4885315;29;20496;-81
2021/10/28 05:40:31;;;;;;;19.55;12.30;;;7.70;99.90;;;;;;4900062;29;21842;-81
2021/10/28 05:43:01;;;;;;;13.50;8.77;;;7.70;99.90;;;;;;4880422;29;20040;-81
2021/10/28 05:45:27;;;;;;;16.98;9.05;;;7.90;99.90;;;;;;4897723;29;20142;-82
2021/10/28 05:47:52;;;;;;;19.17;11.50;;;7.90;99.90;;;;;;4924824;29;20147;-82
2021/10/28 05:50:20;;;;;;;19.25;10.98;;;7.90;99.90;;;;;;4896459;29;20126;-81
2021/10/28 05:52:48;;;;;;;15.82;8.50;;;7.90;99.90;;;;;;4927542;29;20400;-80
2021/10/28 05:55:14;;;;;;;14.23;9.65;;;8.00;99.90;;;;;;4887172;29;20508;-82
2021/10/28 05:57:39;;;;;;;13.63;8.18;;;8.00;99.90;;;;;;4901406;29;20112;-81
2021/10/28 06:00:08;;;;;;;17.92;10.90;;;8.00;99.90;;;;;;4893218;29;20167;-81
2021/10/28 06:02:34;;;;;;;20.75;10.90;;;7.80;99.90;;;;;;4897417;29;20059;-81
2021/10/28 06:05:01;;;;;;;18.63;9.57;;;7.70;99.90;;;;;;4898293;29;20126;-82
2021/10/28 06:07:27;;;;;;;17.15;10.50;;;7.80;99.90;;;;;;4908709;29;20052;-81
2021/10/28 06:09:52;;;;;;;18.92;10.43;;;7.80;99.90;;;;;;4900819;29;20024;-82
2021/10/28 06:12:18;;;;;;;17.83;10.35;;;7.70;99.90;;;;;;4897881;29;20042;-81
2021/10/28 06:14:43;;;;;;;22.85;12.45;;;7.70;99.90;;;;;;4919274;29;20039;-82
2021/10/28 06:17:12;;;;;;;34.05;13.25;;;7.60;99.90;;;;;;4894130;29;20078;-82
2021/10/28 06:19:39;;;;;;;22.25;12.18;;;7.60;99.90;;;;;;4914580;29;20055;-82
2021/10/28 06:22:05;;;;;;;22.73;11.73;;;7.70;99.90;;;;;;4893025;29;20034;-82
2021/10/28 06:24:36;;;;;;;27.30;13.32;;;7.70;99.90;;;;;;4910369;29;20039;-82
2021/10/28 06:27:02;;;;;;;20.50;10.65;;;7.60;99.90;;;;;;4896030;29;20107;-82
2021/10/28 06:29:28;;;;;;;20.48;10.32;;;7.60;99.90;;;;;;4894832;29;20560;-81
2021/10/28 06:31:53;;;;;;;15.57;8.88;;;7.60;99.90;;;;;;4881814;29;20040;-82
2021/10/28 06:34:24;;;;;;;18.77;11.05;;;7.60;99.90;;;;;;4907982;29;20126;-82
2021/10/28 06:36:50;;;;;;;23.55;12.07;;;7.70;99.90;;;;;;4908308;29;20079;-82
2021/10/28 06:39:16;;;;;;;23.02;12.70;;;7.70;99.90;;;;;;4910940;29;20436;-82
2021/10/28 06:41:42;;;;;;;22.65;12.27;;;7.70;99.90;;;;;;4909540;29;20095;-82
2021/10/28 06:44:08;;;;;;;27.38;13.85;;;7.70;99.90;;;;;;4894880;29;20040;-82
2021/10/28 06:46:33;;;;;;;22.90;12.82;;;7.60;99.90;;;;;;4897275;29;20031;-82
2021/10/28 06:49:01;;;;;;;20.08;10.98;;;7.70;99.90;;;;;;4892924;29;20390;-81
2021/10/28 06:51:27;;;;;;;18.67;9.95;;;7.80;99.90;;;;;;4910405;29;20043;-83
2021/10/28 06:54:01;;;;;;;17.58;9.80;;;7.90;99.90;;;;;;4900674;29;20031;-82
2021/10/28 07:04:20;;;;;;;25.80;13.60;;;8.10;99.90;;;;;;4899650;29;20039;-81
2021/10/28 07:06:46;;;;;;;22.95;12.93;;;8.10;99.90;;;;;;4920510;29;20345;-81
2021/10/28 07:09:28;;;;;;;19.48;11.05;;;8.20;99.90;;;;;;4905198;29;20403;-81
2021/10/28 07:12:07;;;;;;;18.60;10.98;;;8.30;99.90;;;;;;4927704;28;20086;-82
2021/10/28 07:14:33;;;;;;;24.23;11.98;;;8.40;99.90;;;;;;4928832;29;20059;-81
2021/10/28 07:17:08;;;;;;;24.67;12.55;;;8.50;99.90;;;;;;4900816;29;20054;-81
2021/10/28 07:24:56;;;;;;;28.58;15.18;;;8.90;99.90;;;;;;4929607;28;20045;-81
2021/10/28 07:30:13;;;;;;;24.48;14.25;;;9.00;99.90;;;;;;4929431;29;20035;-81
2021/10/28 07:35:37;;;;;;;24.55;14.20;;;9.30;99.90;;;;;;4920284;29;20036;-81
2021/10/28 08:04:55;;;;;;;23.70;13.32;;;10.70;99.90;;;;;;4922283;29;20043;-81
2021/10/28 08:16:55;;;;;;;20.00;10.90;;;11.40;99.90;;;;;;4948615;28;20038;-81
2021/10/28 08:23:48;;;;;;;17.02;10.27;;;12.10;99.90;;;;;;4946703;28;20032;-81
2021/10/28 08:29:04;;;;;;;17.63;10.10;;;12.10;99.90;;;;;;4934473;28;20047;-81
2021/10/28 08:31:30;;;;;;;13.80;9.48;;;12.10;99.90;;;;;;4946052;28;20066;-81
2021/10/28 08:33:55;;;;;;;14.30;8.85;;;12.40;99.90;;;;;;4920995;28;20046;-81
2021/10/28 08:36:26;;;;;;;13.38;9.23;;;12.60;99.90;;;;;;4931772;29;20051;-81
2021/10/28 08:38:51;;;;;;;13.55;8.02;;;12.70;99.90;;;;;;4915870;28;20493;-81
2021/10/28 08:41:18;;;;;;;14.80;8.63;;;12.90;99.90;;;;;;4917215;29;20544;-81
2021/10/28 08:43:45;;;;;;;11.20;7.65;;;13.20;99.90;;;;;;4933432;29;20496;-81
2021/10/28 08:46:11;;;;;;;11.45;7.45;;;13.10;99.90;;;;;;4917829;29;20138;-81
2021/10/28 08:48:39;;;;;;;16.38;7.85;;;13.30;99.90;;;;;;4926087;28;20044;-81
2021/10/28 08:54:02;;;;;;;12.30;8.25;;;13.50;99.90;;;;;;4944976;28;20043;-80
2021/10/28 08:56:55;;;;;;;13.52;7.60;;;13.40;99.90;;;;;;4588309;28;10001181;-81
2021/10/28 09:24:38;;;;;;;9.65;6.82;;;15.10;99.90;;;;;;4939367;28;20038;-81
2021/10/28 09:35:09;;;;;;;10.30;7.05;;;15.70;98.50;;;;;;4917665;28;20032;-81
2021/10/28 09:51:38;;;;;;;11.52;6.85;;;16.10;98.10;;;;;;4921595;29;20046;-81
2021/10/28 09:59:53;;;;;;;13.35;7.32;;;16.40;97.10;;;;;;4933227;28;20038;-81
2021/10/28 10:02:43;;;;;;;10.68;7.18;;;16.60;96.80;;;;;;4918852;29;20036;-81
2021/10/28 10:05:15;;;;;;;9.15;6.03;;;16.50;96.60;;;;;;4922646;29;20035;-81
2021/10/28 10:07:42;;;;;;;10.73;6.85;;;16.90;96.50;;;;;;4943671;28;20111;-81
2021/10/28 10:10:08;;;;;;;10.82;6.25;;;17.10;95.60;;;;;;4904482;29;20035;-81
2021/10/28 10:12:33;;;;;;;10.02;7.13;;;17.30;95.90;;;;;;4915807;28;20042;-81
2021/10/28 10:15:01;;;;;;;9.02;6.78;;;17.40;95.70;;;;;;4912987;28;20070;-81
2021/10/28 10:17:26;;;;;;;9.68;6.75;;;17.30;97.00;;;;;;4901901;28;20027;-81
2021/10/28 10:19:56;;;;;;;7.72;6.53;;;17.60;94.90;;;;;;4898730;29;20031;-81
2021/10/28 10:22:33;;;;;;;15.77;6.88;;;17.70;94.40;;;;;;4923173;29;20027;-81
2021/10/28 10:25:31;;;;;;;8.77;6.15;;;17.80;94.90;;;;;;4931694;28;20076;-81
2021/10/28 11:32:16;;;;;;;7.15;4.18;;;20.70;90.20;;;;;;4919159;29;20039;-81
2021/10/28 12:16:31;;;;;;;5.65;3.15;;;21.50;85.60;;;;;;4944046;29;20046;-83
2021/10/28 12:22:20;;;;;;;5.65;2.78;;;21.80;83.00;;;;;;4915557;29;20043;-84
2021/10/28 12:48:28;;;;;;;3.70;2.45;;;22.10;79.30;;;;;;4917465;29;20090;-82
2021/10/28 12:51:18;;;;;;;4.78;2.47;;;22.20;77.90;;;;;;4939153;28;20063;-82
2021/10/28 12:54:12;;;;;;;5.25;2.15;;;22.30;77.40;;;;;;4916106;29;20127;-84
2021/10/28 12:57:09;;;;;;;5.38;1.98;;;22.10;77.30;;;;;;4903225;29;20097;-83
2021/10/28 13:04:09;;;;;;;2.47;2.03;;;21.90;79.50;;;;;;4898920;29;20143;-84
2021/10/28 13:50:53;;;;;;;5.95;3.40;;;21.60;75.60;;;;;;4902379;29;20068;-83
2021/10/28 13:53:38;;;;;;;6.22;4.00;;;21.60;75.70;;;;;;4910095;29;20505;-83
2021/10/28 13:56:26;;;;;;;4.72;3.40;;;21.60;75.80;;;;;;4921221;29;20417;-83
2021/10/28 13:59:22;;;;;;;5.32;3.78;;;21.60;76.90;;;;;;4913848;29;20040;-86
2021/10/28 14:27:29;;;;;;;4.75;3.78;;;20.80;77.40;;;;;;4847030;29;20033;-83
2021/10/28 14:32:30;;;;;;;5.22;4.32;;;20.80;75.80;;;;;;4924600;29;20047;-83
2021/10/28 15:29:30;;;;;;;6.70;4.40;;;18.90;83.10;;;;;;4908140;29;20040;-83
2021/10/28 16:23:07;;;;;;;10.88;8.05;;;16.40;90.70;;;;;;4941005;28;20460;-83
2021/10/28 16:25:33;;;;;;;13.07;8.55;;;16.40;91.00;;;;;;4938915;28;20048;-83
2021/10/28 16:27:58;;;;;;;16.13;9.60;;;16.20;90.90;;;;;;4917736;29;20094;-83
2021/10/28 16:30:24;;;;;;;9.90;7.40;;;16.10;91.10;;;;;;4942719;29;20068;-83
2021/10/28 16:32:49;;;;;;;14.55;7.60;;;16.00;91.30;;;;;;4931570;28;20062;-83
2021/10/28 16:35:15;;;;;;;11.82;9.27;;;15.90;91.70;;;;;;4916716;29;20060;-83
2021/10/28 16:37:40;;;;;;;12.15;8.02;;;15.70;91.70;;;;;;4914269;28;20107;-83
2021/10/28 16:40:07;;;;;;;15.40;9.40;;;15.70;92.10;;;;;;4928670;29;20058;-83
2021/10/28 16:42:33;;;;;;;14.13;10.00;;;15.60;91.90;;;;;;4943544;28;20123;-83
2021/10/28 16:44:58;;;;;;;11.65;8.60;;;15.50;92.00;;;;;;4904489;29;20437;-83
2021/10/28 16:47:27;;;;;;;11.88;8.27;;;15.30;92.20;;;;;;4924772;29;20536;-82
2021/10/28 16:49:53;;;;;;;14.85;10.40;;;15.20;92.70;;;;;;4931313;28;20059;-81
2021/10/28 16:52:18;;;;;;;14.50;8.80;;;15.10;92.60;;;;;;4917263;28;20126;-82
2021/10/28 16:54:44;;;;;;;14.20;9.43;;;15.00;92.90;;;;;;4926708;29;20079;-81
2021/10/28 16:57:09;;;;;;;13.30;9.10;;;14.90;93.10;;;;;;4914601;29;20538;-82
2021/10/28 16:59:35;;;;;;;15.25;10.45;;;14.70;93.00;;;;;;4906479;29;20028;-81
2021/10/28 17:02:00;;;;;;;16.55;11.63;;;14.80;93.20;;;;;;4930684;29;20321;-82
2021/10/28 17:04:26;;;;;;;16.42;9.80;;;14.60;93.30;;;;;;4940429;28;20032;-82
2021/10/28 17:06:52;;;;;;;16.27;10.18;;;14.50;93.70;;;;;;4941759;28;20716;-81
2021/10/28 17:09:18;;;;;;;16.73;11.30;;;14.50;93.70;;;;;;4942832;29;20051;-82
2021/10/28 17:11:44;;;;;;;16.65;11.02;;;14.40;94.00;;;;;;4912619;29;20420;-81
2021/10/28 17:14:11;;;;;;;19.08;12.30;;;14.40;94.00;;;;;;4938861;28;20040;-81
2021/10/28 17:16:38;;;;;;;19.15;11.30;;;14.30;94.20;;;;;;4910365;28;20488;-81
2021/10/28 17:19:04;;;;;;;14.27;10.13;;;14.30;94.50;;;;;;4913339;29;20334;-81
2021/10/28 17:21:30;;;;;;;18.50;10.45;;;14.10;94.50;;;;;;4910135;29;20114;-81
2021/10/28 17:24:04;;;;;;;17.05;10.65;;;14.10;94.60;;;;;;4928391;29;20028;-82
2021/10/28 17:26:33;;;;;;;25.88;11.88;;;14.00;94.60;;;;;;4914426;29;20094;-82
2021/10/28 17:29:01;;;;;;;16.63;10.93;;;14.00;94.90;;;;;;4916665;29;20058;-82
2021/10/28 17:31:32;;;;;;;15.18;10.45;;;13.90;94.80;;;;;;4939881;29;20060;-83
2021/10/28 17:33:58;;;;;;;18.83;12.57;;;13.80;95.20;;;;;;4895906;29;20094;-82
2021/10/28 17:36:24;;;;;;;20.20;13.48;;;13.80;95.10;;;;;;4940701;28;20978;-83
2021/10/28 17:38:50;;;;;;;14.40;9.10;;;13.60;95.30;;;;;;4926133;29;20039;-82
2021/10/28 17:41:17;;;;;;;21.48;13.10;;;13.70;95.30;;;;;;4910016;29;20345;-82
2021/10/28 17:43:45;;;;;;;15.85;10.55;;;13.50;95.40;;;;;;4894637;29;20567;-82
2021/10/28 17:46:12;;;;;;;17.77;11.50;;;13.50;95.60;;;;;;4910104;29;20040;-82
2021/10/28 17:48:38;;;;;;;23.42;13.60;;;13.60;95.80;;;;;;4943170;28;20040;-82
2021/10/28 17:51:04;;;;;;;24.10;15.82;;;13.40;95.80;;;;;;4912683;29;20168;-82
2021/10/28 17:53:29;;;;;;;21.98;14.77;;;13.40;95.80;;;;;;4908080;29;20040;-83
2021/10/28 17:55:55;;;;;;;22.73;14.45;;;13.30;95.70;;;;;;4910653;29;20032;-82
2021/10/28 17:58:24;;;;;;;16.65;10.90;;;13.20;95.70;;;;;;4915160;29;20024;-82
2021/10/28 18:00:49;;;;;;;21.42;14.65;;;13.30;96.10;;;;;;4927184;29;20032;-83
2021/10/28 18:03:19;;;;;;;19.13;13.00;;;13.20;96.10;;;;;;4921961;29;20047;-82
2021/10/28 18:05:45;;;;;;;17.88;11.52;;;13.10;96.20;;;;;;4941356;28;20032;-82
2021/10/28 18:08:10;;;;;;;22.95;12.75;;;13.00;96.40;;;;;;4929398;29;20041;-82
2021/10/28 18:10:36;;;;;;;26.05;16.75;;;13.00;96.50;;;;;;4943245;28;20122;-82
2021/10/28 18:13:03;;;;;;;21.20;14.57;;;13.00;96.30;;;;;;4915593;29;20059;-82
2021/10/28 18:15:29;;;;;;;21.98;12.02;;;13.00;96.50;;;;;;4913154;29;20035;-82
2021/10/28 18:17:55;;;;;;;18.23;13.20;;;12.90;96.40;;;;;;4900225;29;20488;-81
2021/10/28 18:20:20;;;;;;;22.02;13.85;;;12.90;96.70;;;;;;4234520;29;10000607;-81
2021/10/28 18:22:48;;;;;;;20.35;12.00;;;12.90;96.60;;;;;;4896958;29;20118;-82
2021/10/28 18:25:14;;;;;;;19.95;13.07;;;12.80;96.80;;;;;;4912992;29;20124;-82
2021/10/28 18:27:40;;;;;;;21.75;13.57;;;12.70;96.70;;;;;;4926370;28;20458;-81
2021/10/28 18:30:11;;;;;;;21.75;13.20;;;12.70;96.90;;;;;;4927866;29;20050;-81
2021/10/28 18:32:38;;;;;;;19.67;11.63;;;12.70;96.90;;;;;;4910210;28;20701;-81
2021/10/28 18:35:04;;;;;;;23.25;13.05;;;12.70;97.10;;;;;;4942967;28;20522;-81
2021/10/28 18:37:30;;;;;;;18.63;11.60;;;12.60;97.10;;;;;;4930204;28;20031;-81
2021/10/28 18:39:55;;;;;;;15.63;9.43;;;12.50;97.20;;;;;;4898712;29;20046;-81
2021/10/28 18:42:21;;;;;;;25.45;14.77;;;12.50;97.30;;;;;;4911752;29;20024;-81
2021/10/28 18:44:47;;;;;;;19.60;13.35;;;12.40;97.60;;;;;;4926653;29;20415;-81
2021/10/28 18:47:14;;;;;;;21.00;14.00;;;12.20;97.60;;;;;;4900826;29;20031;-81
2021/10/28 18:49:40;;;;;;;21.92;13.75;;;12.30;97.60;;;;;;4927641;29;20145;-82
2021/10/28 18:52:05;;;;;;;18.92;11.82;;;12.30;97.60;;;;;;4910667;29;20105;-82
2021/10/28 18:54:31;;;;;;;34.30;22.83;;;12.30;97.60;;;;;;4937953;28;20126;-81
2021/10/28 18:56:57;;;;;;;24.50;15.68;;;12.10;97.70;;;;;;4912091;29;20065;-81
2021/10/28 18:59:23;;;;;;;23.80;14.98;;;12.10;98.00;;;;;;4903648;29;20444;-81
2021/10/28 19:01:50;;;;;;;23.60;14.18;;;12.20;97.90;;;;;;4912850;28;20413;-82
2021/10/28 19:04:17;;;;;;;22.75;14.85;;;12.10;97.80;;;;;;4913540;29;20062;-81
2021/10/28 19:06:42;;;;;;;20.85;12.02;;;12.00;97.90;;;;;;4898282;29;20518;-82
2021/10/28 19:09:08;;;;;;;23.65;13.45;;;12.00;98.00;;;;;;4914561;29;20035;-82
2021/10/28 19:11:34;;;;;;;20.38;11.70;;;12.00;97.80;;;;;;4929531;28;20155;-82
2021/10/28 19:13:59;;;;;;;18.08;12.55;;;12.00;97.90;;;;;;4939887;28;20131;-81
2021/10/28 19:16:25;;;;;;;23.38;13.15;;;11.90;98.00;;;;;;4926097;28;20103;-82
2021/10/28 19:18:50;;;;;;;18.35;10.50;;;11.90;98.20;;;;;;4928518;29;20179;-81
2021/10/28 19:21:16;;;;;;;21.55;14.02;;;11.90;98.10;;;;;;4915502;29;20226;-82
2021/10/28 19:23:42;;;;;;;18.05;11.85;;;11.80;98.30;;;;;;4895609;28;20055;-82
2021/10/28 19:26:08;;;;;;;20.75;12.05;;;11.80;98.20;;;;;;4909283;29;20098;-82
2021/10/28 19:28:34;;;;;;;19.30;12.95;;;11.80;98.20;;;;;;4903194;28;20047;-82
2021/10/28 19:31:03;;;;;;;17.73;11.45;;;11.70;98.20;;;;;;4932086;29;20038;-81
2021/10/28 19:33:40;;;;;;;20.95;12.80;;;11.70;98.20;;;;;;4927009;28;20035;-81
2021/10/28 19:36:09;;;;;;;16.95;10.57;;;11.80;98.30;;;;;;4915473;29;20460;-82
2021/10/28 19:46:32;;;;;;;20.77;12.55;;;11.60;98.30;;;;;;4925991;29;20182;-82
2021/10/28 19:48:58;;;;;;;21.45;11.95;;;11.50;98.60;;;;;;4912884;28;20066;-82
2021/10/28 19:51:24;;;;;;;21.23;13.45;;;11.50;98.50;;;;;;4936689;29;20043;-82
2021/10/28 19:53:50;;;;;;;22.60;13.70;;;11.50;98.60;;;;;;4940950;28;20495;-82
2021/10/28 19:56:19;;;;;;;19.38;12.75;;;11.50;98.80;;;;;;4915247;29;20118;-83
2021/10/28 19:58:55;;;;;;;20.38;12.73;;;11.40;99.10;;;;;;4919865;28;20112;-83
2021/10/28 20:01:28;;;;;;;18.60;11.68;;;11.50;98.80;;;;;;4912491;29;20110;-82
2021/10/28 20:06:44;;;;;;;21.25;10.68;;;11.50;98.80;;;;;;4924923;29;20035;-81
2021/10/28 20:20:22;;;;;;;18.55;11.07;;;11.30;99.00;;;;;;4940506;28;20067;-80
2021/10/28 20:23:15;;;;;;;17.83;11.05;;;11.30;98.80;;;;;;4905539;29;20028;-80
2021/10/28 20:25:40;;;;;;;19.75;12.07;;;11.20;98.80;;;;;;4932272;29;20114;-80
2021/10/28 20:28:07;;;;;;;18.88;11.73;;;11.20;98.90;;;;;;4905880;29;20035;-81
2021/10/28 20:30:40;;;;;;;19.45;10.68;;;11.10;99.00;;;;;;4928048;29;20397;-80
2021/10/28 20:33:06;;;;;;;21.83;11.82;;;11.10;98.90;;;;;;4921714;29;20407;-80
2021/10/28 20:38:16;;;;;;;18.85;11.77;;;11.10;99.00;;;;;;4918279;29;20043;-81
2021/10/28 20:40:42;;;;;;;17.95;11.70;;;11.00;99.00;;;;;;4927869;29;20039;-81
2021/10/28 20:43:08;;;;;;;21.45;13.13;;;10.90;99.10;;;;;;4941897;28;20908;-81
2021/10/28 20:45:34;;;;;;;20.08;11.07;;;10.80;99.20;;;;;;4917898;29;20034;-81
2021/10/28 20:47:59;;;;;;;17.15;11.05;;;10.80;99.10;;;;;;4929394;29;20035;-80
2021/10/28 20:50:26;;;;;;;20.15;13.80;;;10.80;99.10;;;;;;4940400;28;20040;-81
2021/10/28 20:52:52;;;;;;;19.25;12.70;;;10.60;99.10;;;;;;4928063;28;20036;-81
2021/10/28 20:55:18;;;;;;;19.15;11.52;;;10.50;99.60;;;;;;4912204;29;20034;-82
2021/10/28 20:57:44;;;;;;;19.58;11.80;;;10.60;99.50;;;;;;4926358;29;20028;-81
2021/10/28 21:00:11;;;;;;;18.13;11.38;;;10.50;99.50;;;;;;4928615;29;20091;-80
2021/10/28 21:02:37;;;;;;;21.25;11.38;;;10.50;99.70;;;;;;4927863;29;21652;-81
2021/10/28 21:05:10;;;;;;;23.73;12.40;;;10.60;99.50;;;;;;4911378;29;20511;-81
2021/10/28 21:07:36;;;;;;;20.20;12.77;;;10.50;99.60;;;;;;4914592;29;20042;-81
2021/10/28 21:10:02;;;;;;;29.05;14.25;;;10.30;99.60;;;;;;4916188;29;20062;-81
2021/10/28 21:12:28;;;;;;;19.30;11.40;;;10.10;99.80;;;;;;4929280;28;20039;-81
2021/10/28 21:14:53;;;;;;;21.10;12.48;;;10.30;99.90;;;;;;4909773;29;20032;-81
2021/10/28 21:17:19;;;;;;;25.65;12.90;;;10.20;99.90;;;;;;4944879;28;20035;-81
2021/10/28 21:19:44;;;;;;;19.63;12.93;;;10.20;99.90;;;;;;4929356;29;20071;-81